sensor_id;sensor_type;location;lat;lon;timestamp;pressure;altitude;pressure_sealevel;temperature;humidity
58385;BME280;44185;47.844;8.966;2023-03-13T00:01:41;95858.69;;;6.42;100.00
58385;BME280;44185;47.844;8.966;2023-03-13T00:04:07;95859.28;;;6.34;100.00
58385;BME280;44185;47.844;8.966;2023-03-13T00:06:36;95864.84;;;6.29;100.00
58385;BME280;44185;47.844;8.966;2023-03-13T00:09:02;95861.13;;;6.20;100.00
58385;BME280;44185;47.844;8.966;2023-03-13T00:11:28;95857.66;;;6.20;100.00
58385;BME280;44185;47.844;8.966;2023-03-13T00:13:54;95852.75;;;6.15;100.00
58385;BME280;44185;47.844;8.966;2023-03-13T00:16:20;95852.28;;;6.10;100.00
58385;BME280;44185;47.844;8.966;2023-03-13T00:18:47;95856.03;;;6.06;100.00
58385;BME280;44185;47.844;8.966;2023-03-13T00:21:13;95846.38;;;6.06;100.00
58385;BME280;44185;47.844;8.966;2023-03-13T00:23:40;95853.75;;;6.01;100.00
58385;BME280;44185;47.844;8.966;2023-03-13T00:26:07;95853.03;;;5.99;100.00
58385;BME280;44185;47.844;8.966;2023-03-13T00:28:35;95850.75;;;5.94;100.00
58385;BME280;44185;47.844;8.966;2023-03-13T00:31:02;95851.47;;;5.96;100.00
58385;BME280;44185;47.844;8.966;2023-03-13T00:33:27;95847.38;;;5.92;100.00
58385;BME280;44185;47.844;8.966;2023-03-13T00:35:57;95848.56;;;5.88;100.00
58385;BME280;44185;47.844;8.966;2023-03-13T00:38:22;95847.72;;;5.87;100.00
58385;BME280;44185;47.844;8.966;2023-03-13T00:40:57;95851.75;;;5.80;100.00
58385;BME280;44185;47.844;8.966;2023-03-13T00:43:23;95844.81;;;5.79;100.00
58385;BME280;44185;47.844;8.966;2023-03-13T00:45:49;95842.94;;;5.81;100.00
58385;BME280;44185;47.844;8.966;2023-03-13T00:48:14;95852.81;;;5.77;100.00
58385;BME280;44185;47.844;8.966;2023-03-13T00:50:39;95843.59;;;5.72;100.00
58385;BME280;44185;47.844;8.966;2023-03-13T00:53:05;95846.09;;;5.73;100.00
58385;BME280;44185;47.844;8.966;2023-03-13T00:55:30;95845.06;;;5.76;100.00
58385;BME280;44185;47.844;8.966;2023-03-13T00:57:57;95847.56;;;5.77;100.00
58385;BME280;44185;47.844;8.966;2023-03-13T01:00:23;95843.16;;;5.78;100.00
58385;BME280;44185;47.844;8.966;2023-03-13T01:02:49;95841.59;;;5.75;100.00
58385;BME280;44185;47.844;8.966;2023-03-13T01:05:14;95838.00;;;5.76;100.00
58385;BME280;44185;47.844;8.966;2023-03-13T01:07:39;95836.34;;;5.75;100.00
58385;BME280;44185;47.844;8.966;2023-03-13T01:10:06;95838.75;;;5.78;100.00
58385;BME280;44185;47.844;8.966;2023-03-13T01:12:31;95832.44;;;5.81;100.00
58385;BME280;44185;47.844;8.966;2023-03-13T01:14:58;95838.28;;;5.85;100.00
58385;BME280;44185;47.844;8.966;2023-03-13T01:17:24;95830.53;;;5.83;100.00
58385;BME280;44185;47.844;8.966;2023-03-13T01:19:49;95833.03;;;5.85;100.00
58385;BME280;44185;47.844;8.966;2023-03-13T01:22:14;95834.94;;;5.83;100.00
58385;BME280;44185;47.844;8.966;2023-03-13T01:24:40;95834.72;;;5.86;100.00
58385;BME280;44185;47.844;8.966;2023-03-13T01:27:05;95829.13;;;5.90;100.00
58385;BME280;44185;47.844;8.966;2023-03-13T01:29:31;95832.09;;;5.86;100.00
58385;BME280;44185;47.844;8.966;2023-03-13T01:31:58;95826.72;;;5.87;100.00
58385;BME280;44185;47.844;8.966;2023-03-13T01:34:23;95824.94;;;5.88;100.00
58385;BME280;44185;47.844;8.966;2023-03-13T01:36:49;95824.09;;;5.87;100.00
58385;BME280;44185;47.844;8.966;2023-03-13T01:39:14;95825.41;;;5.93;100.00
58385;BME280;44185;47.844;8.966;2023-03-13T01:41:40;95824.22;;;5.97;100.00
58385;BME280;44185;47.844;8.966;2023-03-13T01:44:19;95814.69;;;5.96;100.00
58385;BME280;44185;47.844;8.966;2023-03-13T01:46:45;95813.34;;;5.90;100.00
58385;BME280;44185;47.844;8.966;2023-03-13T01:49:14;95809.88;;;5.90;100.00
58385;BME280;44185;47.844;8.966;2023-03-13T01:51:43;95808.22;;;5.89;100.00
58385;BME280;44185;47.844;8.966;2023-03-13T01:54:13;95807.38;;;5.88;100.00
58385;BME280;44185;47.844;8.966;2023-03-13T01:56:42;95805.91;;;5.84;100.00
58385;BME280;44185;47.844;8.966;2023-03-13T01:59:12;95801.16;;;5.89;100.00
58385;BME280;44185;47.844;8.966;2023-03-13T02:01:40;95803.28;;;5.84;100.00
58385;BME280;44185;47.844;8.966;2023-03-13T02:04:06;95799.84;;;5.84;100.00
58385;BME280;44185;47.844;8.966;2023-03-13T02:06:35;95797.22;;;5.84;100.00
58385;BME280;44185;47.844;8.966;2023-03-13T02:09:05;95805.69;;;5.87;100.00
58385;BME280;44185;47.844;8.966;2023-03-13T02:11:39;95791.97;;;5.84;100.00
58385;BME280;44185;47.844;8.966;2023-03-13T02:14:08;95783.41;;;5.93;100.00
58385;BME280;44185;47.844;8.966;2023-03-13T02:16:34;95780.41;;;5.86;100.00
58385;BME280;44185;47.844;8.966;2023-03-13T02:19:07;95778.09;;;5.82;100.00
58385;BME280;44185;47.844;8.966;2023-03-13T02:21:41;95775.59;;;5.80;100.00
58385;BME280;44185;47.844;8.966;2023-03-13T02:24:13;95773.59;;;5.84;100.00
58385;BME280;44185;47.844;8.966;2023-03-13T02:26:45;95775.16;;;5.86;100.00
58385;BME280;44185;47.844;8.966;2023-03-13T02:29:11;95775.47;;;5.82;100.00
58385;BME280;44185;47.844;8.966;2023-03-13T02:31:36;95769.63;;;5.78;100.00
58385;BME280;44185;47.844;8.966;2023-03-13T02:34:02;95764.47;;;5.76;100.00
58385;BME280;44185;47.844;8.966;2023-03-13T02:36:29;95758.16;;;5.79;100.00
58385;BME280;44185;47.844;8.966;2023-03-13T02:38:56;95754.59;;;5.80;100.00
58385;BME280;44185;47.844;8.966;2023-03-13T02:41:24;95747.34;;;5.84;100.00
58385;BME280;44185;47.844;8.966;2023-03-13T02:43:52;95739.56;;;5.82;100.00
58385;BME280;44185;47.844;8.966;2023-03-13T02:46:19;95735.88;;;5.85;100.00
58385;BME280;44185;47.844;8.966;2023-03-13T02:48:46;95737.91;;;5.81;100.00
58385;BME280;44185;47.844;8.966;2023-03-13T02:51:17;95738.00;;;5.79;100.00
58385;BME280;44185;47.844;8.966;2023-03-13T02:53:43;95725.84;;;5.78;100.00
58385;BME280;44185;47.844;8.966;2023-03-13T02:56:11;95717.59;;;5.83;100.00
58385;BME280;44185;47.844;8.966;2023-03-13T02:58:39;95715.69;;;5.85;100.00
58385;BME280;44185;47.844;8.966;2023-03-13T03:01:07;95718.69;;;5.81;100.00
58385;BME280;44185;47.844;8.966;2023-03-13T03:03:33;95715.81;;;5.84;100.00
58385;BME280;44185;47.844;8.966;2023-03-13T03:05:58;95715.56;;;5.87;100.00
58385;BME280;44185;47.844;8.966;2023-03-13T03:08:24;95716.06;;;5.81;100.00
58385;BME280;44185;47.844;8.966;2023-03-13T03:10:49;95717.00;;;5.79;100.00
58385;BME280;44185;47.844;8.966;2023-03-13T03:13:15;95714.75;;;5.86;100.00
58385;BME280;44185;47.844;8.966;2023-03-13T03:15:40;95703.75;;;5.81;100.00
58385;BME280;44185;47.844;8.966;2023-03-13T03:18:07;95705.53;;;5.81;100.00
58385;BME280;44185;47.844;8.966;2023-03-13T03:20:32;95721.75;;;5.74;100.00
58385;BME280;44185;47.844;8.966;2023-03-13T03:22:58;95718.28;;;5.74;100.00
58385;BME280;44185;47.844;8.966;2023-03-13T03:25:23;95712.59;;;5.80;100.00
58385;BME280;44185;47.844;8.966;2023-03-13T03:27:49;95705.78;;;5.77;100.00
58385;BME280;44185;47.844;8.966;2023-03-13T03:30:14;95699.81;;;5.75;100.00
58385;BME280;44185;47.844;8.966;2023-03-13T03:32:40;95707.47;;;5.78;100.00
58385;BME280;44185;47.844;8.966;2023-03-13T03:35:07;95706.13;;;5.73;100.00
58385;BME280;44185;47.844;8.966;2023-03-13T03:37:32;95708.63;;;5.74;100.00
58385;BME280;44185;47.844;8.966;2023-03-13T03:39:58;95707.56;;;5.77;100.00
58385;BME280;44185;47.844;8.966;2023-03-13T03:42:23;95712.09;;;5.75;100.00
58385;BME280;44185;47.844;8.966;2023-03-13T03:44:49;95699.81;;;5.75;100.00
58385;BME280;44185;47.844;8.966;2023-03-13T03:47:14;95707.78;;;5.74;100.00
58385;BME280;44185;47.844;8.966;2023-03-13T03:49:39;95710.41;;;5.74;100.00
58385;BME280;44185;47.844;8.966;2023-03-13T03:52:06;95704.84;;;5.78;100.00
58385;BME280;44185;47.844;8.966;2023-03-13T03:54:32;95698.50;;;5.81;100.00
58385;BME280;44185;47.844;8.966;2023-03-13T03:56:57;95693.50;;;5.78;100.00
58385;BME280;44185;47.844;8.966;2023-03-13T03:59:23;95697.41;;;5.72;100.00
58385;BME280;44185;47.844;8.966;2023-03-13T04:01:49;95701.94;;;5.70;100.00
58385;BME280;44185;47.844;8.966;2023-03-13T04:04:14;95716.13;;;5.67;100.00
58385;BME280;44185;47.844;8.966;2023-03-13T04:06:39;95692.16;;;5.72;100.00
58385;BME280;44185;47.844;8.966;2023-03-13T04:09:06;95688.19;;;5.66;100.00
58385;BME280;44185;47.844;8.966;2023-03-13T04:11:32;95674.63;;;5.73;100.00
58385;BME280;44185;47.844;8.966;2023-03-13T04:13:57;95659.94;;;5.70;100.00
58385;BME280;44185;47.844;8.966;2023-03-13T04:16:23;95659.34;;;5.78;100.00
58385;BME280;44185;47.844;8.966;2023-03-13T04:18:49;95641.06;;;5.76;100.00
58385;BME280;44185;47.844;8.966;2023-03-13T04:21:14;95656.00;;;5.76;100.00
58385;BME280;44185;47.844;8.966;2023-03-13T04:23:40;95665.53;;;5.77;100.00
58385;BME280;44185;47.844;8.966;2023-03-13T04:26:06;95665.19;;;5.82;100.00
58385;BME280;44185;47.844;8.966;2023-03-13T04:28:32;95668.66;;;5.82;100.00
58385;BME280;44185;47.844;8.966;2023-03-13T04:30:57;95684.31;;;5.84;100.00
58385;BME280;44185;47.844;8.966;2023-03-13T04:33:23;95668.44;;;5.85;100.00
58385;BME280;44185;47.844;8.966;2023-03-13T04:35:49;95659.25;;;5.91;100.00
58385;BME280;44185;47.844;8.966;2023-03-13T04:38:14;95660.41;;;5.87;100.00
58385;BME280;44185;47.844;8.966;2023-03-13T04:40:39;95660.56;;;5.85;100.00
58385;BME280;44185;47.844;8.966;2023-03-13T04:43:06;95656.13;;;5.86;100.00
58385;BME280;44185;47.844;8.966;2023-03-13T04:45:32;95646.94;;;5.80;100.00
58385;BME280;44185;47.844;8.966;2023-03-13T04:47:57;95647.06;;;5.78;100.00
58385;BME280;44185;47.844;8.966;2023-03-13T04:50:22;95659.94;;;5.82;100.00
58385;BME280;44185;47.844;8.966;2023-03-13T04:52:49;95654.94;;;5.78;100.00
58385;BME280;44185;47.844;8.966;2023-03-13T04:55:14;95638.56;;;5.75;100.00
58385;BME280;44185;47.844;8.966;2023-03-13T04:57:39;95640.84;;;5.79;100.00
58385;BME280;44185;47.844;8.966;2023-03-13T05:00:08;95645.16;;;5.81;100.00
58385;BME280;44185;47.844;8.966;2023-03-13T05:02:34;95646.59;;;5.85;100.00
58385;BME280;44185;47.844;8.966;2023-03-13T05:04:59;95648.03;;;5.89;100.00
58385;BME280;44185;47.844;8.966;2023-03-13T05:07:24;95658.06;;;5.84;100.00
58385;BME280;44185;47.844;8.966;2023-03-13T05:09:50;95658.88;;;5.84;100.00
58385;BME280;44185;47.844;8.966;2023-03-13T05:12:15;95656.38;;;5.83;100.00
58385;BME280;44185;47.844;8.966;2023-03-13T05:14:41;95643.94;;;5.85;100.00
58385;BME280;44185;47.844;8.966;2023-03-13T05:17:08;95647.28;;;5.87;100.00
58385;BME280;44185;47.844;8.966;2023-03-13T05:19:34;95633.84;;;5.92;100.00
58385;BME280;44185;47.844;8.966;2023-03-13T05:21:59;95632.84;;;5.93;100.00
58385;BME280;44185;47.844;8.966;2023-03-13T05:24:24;95629.28;;;5.94;100.00
58385;BME280;44185;47.844;8.966;2023-03-13T05:26:50;95626.75;;;5.92;100.00
58385;BME280;44185;47.844;8.966;2023-03-13T05:29:15;95628.56;;;5.92;100.00
58385;BME280;44185;47.844;8.966;2023-03-13T05:31:41;95620.56;;;5.93;100.00
58385;BME280;44185;47.844;8.966;2023-03-13T05:34:08;95621.28;;;5.95;100.00
58385;BME280;44185;47.844;8.966;2023-03-13T05:36:34;95626.66;;;5.94;100.00
58385;BME280;44185;47.844;8.966;2023-03-13T05:38:59;95625.47;;;5.98;100.00
58385;BME280;44185;47.844;8.966;2023-03-13T05:41:24;95622.72;;;5.99;100.00
58385;BME280;44185;47.844;8.966;2023-03-13T05:43:50;95617.72;;;5.96;100.00
58385;BME280;44185;47.844;8.966;2023-03-13T05:46:15;95610.31;;;6.01;100.00
58385;BME280;44185;47.844;8.966;2023-03-13T05:48:41;95607.91;;;5.98;100.00
58385;BME280;44185;47.844;8.966;2023-03-13T05:51:08;95609.34;;;6.03;100.00
58385;BME280;44185;47.844;8.966;2023-03-13T05:53:34;95616.03;;;5.95;100.00
58385;BME280;44185;47.844;8.966;2023-03-13T05:55:59;95618.41;;;5.98;100.00
58385;BME280;44185;47.844;8.966;2023-03-13T05:58:24;95617.22;;;6.03;100.00
58385;BME280;44185;47.844;8.966;2023-03-13T06:00:50;95631.31;;;6.01;100.00
58385;BME280;44185;47.844;8.966;2023-03-13T06:03:15;95617.22;;;6.03;100.00
58385;BME280;44185;47.844;8.966;2023-03-13T06:05:41;95615.56;;;6.01;100.00
58385;BME280;44185;47.844;8.966;2023-03-13T06:08:07;95619.41;;;6.09;100.00
58385;BME280;44185;47.844;8.966;2023-03-13T06:10:34;95636.34;;;6.05;100.00
58385;BME280;44185;47.844;8.966;2023-03-13T06:12:59;95634.66;;;6.04;100.00
58385;BME280;44185;47.844;8.966;2023-03-13T06:15:25;95623.66;;;6.56;100.00
58385;BME280;44185;47.844;8.966;2023-03-13T06:17:50;95625.88;;;6.72;100.00
58385;BME280;44185;47.844;8.966;2023-03-13T06:20:16;95613.81;;;6.81;100.00
58385;BME280;44185;47.844;8.966;2023-03-13T06:22:41;95628.88;;;6.79;100.00
58385;BME280;44185;47.844;8.966;2023-03-13T06:25:09;95634.25;;;6.77;100.00
58385;BME280;44185;47.844;8.966;2023-03-13T06:27:34;95635.78;;;6.80;100.00
58385;BME280;44185;47.844;8.966;2023-03-13T06:30:00;95618.81;;;6.84;100.00
58385;BME280;44185;47.844;8.966;2023-03-13T06:32:26;95620.72;;;6.82;100.00
58385;BME280;44185;47.844;8.966;2023-03-13T06:34:51;95619.38;;;6.88;100.00
58385;BME280;44185;47.844;8.966;2023-03-13T06:37:17;95614.88;;;6.90;100.00
58385;BME280;44185;47.844;8.966;2023-03-13T06:39:42;95622.47;;;6.93;100.00
58385;BME280;44185;47.844;8.966;2023-03-13T06:42:09;95630.97;;;6.97;100.00
58385;BME280;44185;47.844;8.966;2023-03-13T06:44:34;95621.75;;;7.03;100.00
58385;BME280;44185;47.844;8.966;2023-03-13T06:47:00;95623.41;;;7.04;100.00
58385;BME280;44185;47.844;8.966;2023-03-13T06:49:25;95640.88;;;7.05;100.00
58385;BME280;44185;47.844;8.966;2023-03-13T06:51:51;95624.00;;;7.07;100.00
58385;BME280;44185;47.844;8.966;2023-03-13T06:54:16;95634.38;;;7.09;100.00
58385;BME280;44185;47.844;8.966;2023-03-13T06:56:42;95627.78;;;7.15;100.00
58385;BME280;44185;47.844;8.966;2023-03-13T06:59:09;95619.78;;;7.16;100.00
58385;BME280;44185;47.844;8.966;2023-03-13T07:01:34;95613.50;;;7.29;100.00
58385;BME280;44185;47.844;8.966;2023-03-13T07:03:59;95613.34;;;7.30;100.00
58385;BME280;44185;47.844;8.966;2023-03-13T07:06:25;95604.97;;;7.37;100.00
58385;BME280;44185;47.844;8.966;2023-03-13T07:08:50;95599.44;;;7.40;100.00
58385;BME280;44185;47.844;8.966;2023-03-13T07:11:16;95600.53;;;7.37;100.00
58385;BME280;44185;47.844;8.966;2023-03-13T07:13:41;95599.31;;;7.41;100.00
58385;BME280;44185;47.844;8.966;2023-03-13T07:16:09;95604.75;;;7.50;100.00
58385;BME280;44185;47.844;8.966;2023-03-13T07:18:35;95593.44;;;7.59;100.00
58385;BME280;44185;47.844;8.966;2023-03-13T07:21:02;95595.72;;;7.64;100.00
58385;BME280;44185;47.844;8.966;2023-03-13T07:23:28;95599.50;;;7.71;100.00
58385;BME280;44185;47.844;8.966;2023-03-13T07:25:55;95591.19;;;7.76;100.00
58385;BME280;44185;47.844;8.966;2023-03-13T07:28:21;95601.50;;;7.89;100.00
58385;BME280;44185;47.844;8.966;2023-03-13T07:30:46;95590.38;;;8.07;100.00
58385;BME280;44185;47.844;8.966;2023-03-13T07:33:13;95601.38;;;8.22;100.00
58385;BME280;44185;47.844;8.966;2023-03-13T07:35:39;95600.72;;;8.30;100.00
58385;BME280;44185;47.844;8.966;2023-03-13T07:38:04;95592.25;;;8.36;100.00
58385;BME280;44185;47.844;8.966;2023-03-13T07:40:30;95608.66;;;8.50;100.00
58385;BME280;44185;47.844;8.966;2023-03-13T07:42:55;95608.66;;;8.50;100.00
58385;BME280;44185;47.844;8.966;2023-03-13T07:45:20;95602.00;;;8.55;100.00
58385;BME280;44185;47.844;8.966;2023-03-13T07:47:46;95614.50;;;8.53;100.00
58385;BME280;44185;47.844;8.966;2023-03-13T07:50:13;95614.00;;;8.60;100.00
58385;BME280;44185;47.844;8.966;2023-03-13T07:52:38;95612.91;;;8.62;100.00
58385;BME280;44185;47.844;8.966;2023-03-13T07:55:04;95599.31;;;8.67;100.00
58385;BME280;44185;47.844;8.966;2023-03-13T07:57:29;95597.50;;;8.67;100.00
58385;BME280;44185;47.844;8.966;2023-03-13T07:59:55;95597.09;;;8.72;100.00
58385;BME280;44185;47.844;8.966;2023-03-13T08:02:20;95603.19;;;8.73;100.00
58385;BME280;44185;47.844;8.966;2023-03-13T08:04:46;95603.75;;;8.76;100.00
58385;BME280;44185;47.844;8.966;2023-03-13T08:07:13;95612.34;;;8.78;100.00
58385;BME280;44185;47.844;8.966;2023-03-13T08:09:38;95603.22;;;8.83;100.00
58385;BME280;44185;47.844;8.966;2023-03-13T08:12:04;95596.81;;;8.85;100.00
58385;BME280;44185;47.844;8.966;2023-03-13T08:14:30;95587.78;;;8.98;100.00
58385;BME280;44185;47.844;8.966;2023-03-13T08:16:55;95593.91;;;9.08;99.03
58385;BME280;44185;47.844;8.966;2023-03-13T08:19:21;95593.50;;;9.23;99.29
58385;BME280;44185;47.844;8.966;2023-03-13T08:21:46;95597.53;;;9.27;98.53
58385;BME280;44185;47.844;8.966;2023-03-13T08:24:13;95605.72;;;9.34;98.54
58385;BME280;44185;47.844;8.966;2023-03-13T08:26:40;95606.84;;;9.31;98.91
58385;BME280;44185;47.844;8.966;2023-03-13T08:29:07;95605.84;;;9.32;97.99
58385;BME280;44185;47.844;8.966;2023-03-13T08:31:35;95599.44;;;9.45;97.50
58385;BME280;44185;47.844;8.966;2023-03-13T08:34:01;95592.47;;;9.64;98.23
58385;BME280;44185;47.844;8.966;2023-03-13T08:36:29;95598.41;;;9.76;96.16
58385;BME280;44185;47.844;8.966;2023-03-13T08:38:58;95602.19;;;9.73;95.95
58385;BME280;44185;47.844;8.966;2023-03-13T08:41:26;95594.91;;;9.85;95.54
58385;BME280;44185;47.844;8.966;2023-03-13T08:43:53;95586.84;;;9.87;97.00
58385;BME280;44185;47.844;8.966;2023-03-13T08:46:19;95585.41;;;9.93;95.36
58385;BME280;44185;47.844;8.966;2023-03-13T08:48:47;95581.66;;;9.95;93.90
58385;BME280;44185;47.844;8.966;2023-03-13T08:51:14;95578.16;;;10.05;93.78
58385;BME280;44185;47.844;8.966;2023-03-13T08:53:41;95579.38;;;10.10;94.18
58385;BME280;44185;47.844;8.966;2023-03-13T08:56:07;95574.72;;;10.22;93.49
58385;BME280;44185;47.844;8.966;2023-03-13T08:58:35;95571.16;;;10.42;95.32
58385;BME280;44185;47.844;8.966;2023-03-13T09:01:01;95560.09;;;10.56;94.37
58385;BME280;44185;47.844;8.966;2023-03-13T09:03:27;95554.88;;;10.65;90.86
58385;BME280;44185;47.844;8.966;2023-03-13T09:05:52;95557.50;;;10.75;91.31
58385;BME280;44185;47.844;8.966;2023-03-13T09:08:18;95546.44;;;10.79;90.76
58385;BME280;44185;47.844;8.966;2023-03-13T09:10:43;95544.63;;;10.80;90.08
58385;BME280;44185;47.844;8.966;2023-03-13T09:13:09;95547.72;;;10.94;89.80
58385;BME280;44185;47.844;8.966;2023-03-13T09:15:35;95552.78;;;11.05;89.34
58385;BME280;44185;47.844;8.966;2023-03-13T09:18:01;95553.44;;;11.26;87.85
58385;BME280;44185;47.844;8.966;2023-03-13T09:20:26;95552.47;;;11.27;87.23
58385;BME280;44185;47.844;8.966;2023-03-13T09:22:52;95544.88;;;11.32;85.81
58385;BME280;44185;47.844;8.966;2023-03-13T09:25:17;95544.81;;;11.23;86.18
58385;BME280;44185;47.844;8.966;2023-03-13T09:27:43;95540.72;;;11.29;85.53
58385;BME280;44185;47.844;8.966;2023-03-13T09:30:09;95547.97;;;11.45;86.14
58385;BME280;44185;47.844;8.966;2023-03-13T09:32:36;95537.84;;;11.41;86.05
58385;BME280;44185;47.844;8.966;2023-03-13T09:35:02;95538.94;;;11.56;86.12
58385;BME280;44185;47.844;8.966;2023-03-13T09:37:27;95537.38;;;11.72;84.96
58385;BME280;44185;47.844;8.966;2023-03-13T09:39:53;95529.97;;;11.84;84.79
58385;BME280;44185;47.844;8.966;2023-03-13T09:42:21;95531.16;;;11.90;84.10
58385;BME280;44185;47.844;8.966;2023-03-13T09:44:52;95535.84;;;11.96;82.71
58385;BME280;44185;47.844;8.966;2023-03-13T09:47:22;95524.69;;;11.93;82.56
58385;BME280;44185;47.844;8.966;2023-03-13T09:49:53;95524.22;;;11.89;85.53
58385;BME280;44185;47.844;8.966;2023-03-13T09:52:22;95512.47;;;12.00;84.46
58385;BME280;44185;47.844;8.966;2023-03-13T09:54:50;95502.22;;;12.05;84.15
58385;BME280;44185;47.844;8.966;2023-03-13T09:57:24;95504.63;;;12.17;83.17
58385;BME280;44185;47.844;8.966;2023-03-13T09:59:56;95485.59;;;12.30;83.34
58385;BME280;44185;47.844;8.966;2023-03-13T10:02:27;95480.31;;;12.38;82.15
58385;BME280;44185;47.844;8.966;2023-03-13T10:05:01;95475.00;;;12.47;82.81
58385;BME280;44185;47.844;8.966;2023-03-13T10:07:28;95466.72;;;12.58;80.87
58385;BME280;44185;47.844;8.966;2023-03-13T10:09:53;95465.75;;;12.76;82.93
58385;BME280;44185;47.844;8.966;2023-03-13T10:12:20;95468.75;;;12.81;79.55
58385;BME280;44185;47.844;8.966;2023-03-13T10:14:56;95474.03;;;12.98;81.46
58385;BME280;44185;47.844;8.966;2023-03-13T10:17:31;95469.22;;;13.10;79.94
58385;BME280;44185;47.844;8.966;2023-03-13T10:20:00;95460.59;;;13.16;79.18
58385;BME280;44185;47.844;8.966;2023-03-13T10:22:27;95462.06;;;13.27;77.49
58385;BME280;44185;47.844;8.966;2023-03-13T10:24:57;95459.56;;;13.34;77.52
58385;BME280;44185;47.844;8.966;2023-03-13T10:27:23;95461.69;;;13.47;79.46
58385;BME280;44185;47.844;8.966;2023-03-13T10:29:49;95453.53;;;13.65;78.28
58385;BME280;44185;47.844;8.966;2023-03-13T10:32:16;95445.00;;;13.87;77.29
58385;BME280;44185;47.844;8.966;2023-03-13T10:34:51;95441.44;;;14.03;74.61
58385;BME280;44185;47.844;8.966;2023-03-13T10:37:23;95437.56;;;14.14;75.08
58385;BME280;44185;47.844;8.966;2023-03-13T10:39:49;95429.97;;;14.26;73.49
58385;BME280;44185;47.844;8.966;2023-03-13T10:42:20;95423.22;;;14.15;74.17
58385;BME280;44185;47.844;8.966;2023-03-13T10:44:47;95422.50;;;14.30;74.09
58385;BME280;44185;47.844;8.966;2023-03-13T10:47:13;95413.91;;;14.43;75.32
58385;BME280;44185;47.844;8.966;2023-03-13T10:49:47;95402.09;;;14.45;77.24
58385;BME280;44185;47.844;8.966;2023-03-13T10:52:30;95413.72;;;14.44;75.90
58385;BME280;44185;47.844;8.966;2023-03-13T10:54:59;95406.03;;;14.50;73.22
58385;BME280;44185;47.844;8.966;2023-03-13T10:57:28;95405.56;;;14.70;73.92
58385;BME280;44185;47.844;8.966;2023-03-13T10:59:54;95403.84;;;14.77;72.99
58385;BME280;44185;47.844;8.966;2023-03-13T11:02:22;95390.28;;;14.87;74.27
58385;BME280;44185;47.844;8.966;2023-03-13T11:04:49;95383.66;;;14.83;71.93
58385;BME280;44185;47.844;8.966;2023-03-13T11:07:20;95387.41;;;14.97;72.22
58385;BME280;44185;47.844;8.966;2023-03-13T11:09:56;95373.53;;;15.17;72.33
58385;BME280;44185;47.844;8.966;2023-03-13T11:12:22;95361.88;;;15.18;71.94
58385;BME280;44185;47.844;8.966;2023-03-13T11:14:47;95360.94;;;15.41;70.54
58385;BME280;44185;47.844;8.966;2023-03-13T11:17:22;95341.59;;;15.69;71.07
58385;BME280;44185;47.844;8.966;2023-03-13T11:19:55;95338.56;;;15.72;69.70
58385;BME280;44185;47.844;8.966;2023-03-13T11:22:29;95331.78;;;15.54;67.25
58385;BME280;44185;47.844;8.966;2023-03-13T11:25:12;95317.09;;;15.81;69.11
58385;BME280;44185;47.844;8.966;2023-03-13T11:27:45;95319.81;;;16.03;67.90
58385;BME280;44185;47.844;8.966;2023-03-13T11:30:22;95324.22;;;15.95;68.49
58385;BME280;44185;47.844;8.966;2023-03-13T11:32:53;95329.31;;;16.05;67.86
58385;BME280;44185;47.844;8.966;2023-03-13T11:35:32;95325.16;;;16.03;68.35
58385;BME280;44185;47.844;8.966;2023-03-13T11:38:01;95325.78;;;16.05;66.39
58385;BME280;44185;47.844;8.966;2023-03-13T11:40:36;95326.63;;;16.05;65.70
58385;BME280;44185;47.844;8.966;2023-03-13T11:43:13;95312.16;;;16.15;65.47
58385;BME280;44185;47.844;8.966;2023-03-13T11:46:07;95309.47;;;16.37;66.64
58385;BME280;44185;47.844;8.966;2023-03-13T11:48:50;95299.41;;;16.39;64.79
58385;BME280;44185;47.844;8.966;2023-03-13T11:51:20;95295.84;;;16.53;65.40
58385;BME280;44185;47.844;8.966;2023-03-13T11:54:03;95290.03;;;16.72;65.02
58385;BME280;44185;47.844;8.966;2023-03-13T11:56:40;95288.97;;;17.01;64.13
58385;BME280;44185;47.844;8.966;2023-03-13T11:59:18;95283.97;;;16.92;63.75
58385;BME280;44185;47.844;8.966;2023-03-13T12:01:50;95280.88;;;16.59;64.54
58385;BME280;44185;47.844;8.966;2023-03-13T12:04:23;95272.19;;;16.79;64.38
58385;BME280;44185;47.844;8.966;2023-03-13T12:06:51;95253.53;;;16.57;63.90
58385;BME280;44185;47.844;8.966;2023-03-13T12:09:24;95250.63;;;16.52;64.49
58385;BME280;44185;47.844;8.966;2023-03-13T12:11:55;95243.97;;;16.70;65.74
58385;BME280;44185;47.844;8.966;2023-03-13T12:14:25;95237.19;;;16.38;63.78
58385;BME280;44185;47.844;8.966;2023-03-13T12:16:56;95231.81;;;16.31;65.11
58385;BME280;44185;47.844;8.966;2023-03-13T12:19:28;95227.38;;;16.45;65.28
58385;BME280;44185;47.844;8.966;2023-03-13T12:21:56;95211.44;;;16.59;63.78
58385;BME280;44185;47.844;8.966;2023-03-13T12:24:31;95211.47;;;17.01;63.20
58385;BME280;44185;47.844;8.966;2023-03-13T12:27:00;95209.94;;;17.21;63.60
58385;BME280;44185;47.844;8.966;2023-03-13T12:29:38;95187.53;;;17.22;63.92
58385;BME280;44185;47.844;8.966;2023-03-13T12:32:12;95183.25;;;16.85;63.03
58385;BME280;44185;47.844;8.966;2023-03-13T12:34:47;95183.19;;;17.21;64.37
58385;BME280;44185;47.844;8.966;2023-03-13T12:37:22;95176.88;;;17.36;61.73
58385;BME280;44185;47.844;8.966;2023-03-13T12:39:52;95177.53;;;17.51;63.67
58385;BME280;44185;47.844;8.966;2023-03-13T12:42:33;95166.03;;;17.64;61.47
58385;BME280;44185;47.844;8.966;2023-03-13T12:45:01;95152.41;;;17.45;61.50
58385;BME280;44185;47.844;8.966;2023-03-13T12:47:30;95148.13;;;17.72;62.28
58385;BME280;44185;47.844;8.966;2023-03-13T12:50:21;95129.63;;;17.77;62.12
58385;BME280;44185;47.844;8.966;2023-03-13T12:53:22;95127.56;;;17.86;61.14
58385;BME280;44185;47.844;8.966;2023-03-13T12:58:55;95099.56;;;17.82;59.71
58385;BME280;44185;47.844;8.966;2023-03-13T13:01:29;95111.09;;;17.68;59.95
58385;BME280;44185;47.844;8.966;2023-03-13T13:03:58;95094.22;;;17.41;59.85
58385;BME280;44185;47.844;8.966;2023-03-13T13:06:24;95089.91;;;17.67;60.05